createdAt,value
2022-08-26T00:01:52.906Z,6.93
2022-08-26T00:04:21.948Z,8.77
2022-08-26T00:06:48.837Z,7.73
2022-08-26T00:09:16.070Z,8.40
2022-08-26T00:11:44.801Z,7.97
2022-08-26T00:14:13.959Z,7.57
2022-08-26T00:16:47.577Z,7.03
2022-08-26T00:19:20.324Z,8.07
2022-08-26T00:21:48.638Z,8.00
2022-08-26T00:24:15.920Z,8.67
2022-08-26T00:26:42.968Z,6.63
2022-08-26T00:29:09.887Z,7.87
2022-08-26T00:31:37.635Z,8.27
2022-08-26T00:34:05.807Z,8.67
2022-08-26T00:36:32.690Z,8.83
2022-08-26T00:38:59.528Z,7.87
2022-08-26T00:41:26.909Z,8.50
2022-08-26T00:43:54.395Z,5.93
2022-08-26T00:46:28.827Z,5.97
2022-08-26T00:49:03.908Z,7.30
2022-08-26T00:51:49.005Z,7.93
2022-08-26T00:54:16.955Z,7.30
2022-08-26T00:56:55.436Z,6.70
2022-08-26T00:59:23.896Z,6.00
2022-08-26T01:01:51.658Z,7.57
2022-08-26T01:04:21.315Z,7.90
2022-08-26T01:06:51.378Z,8.23
2022-08-26T01:09:19.963Z,8.57
2022-08-26T01:11:49.107Z,7.93
2022-08-26T01:14:18.195Z,7.50
2022-08-26T01:16:48.361Z,7.30
2022-08-26T01:19:46.891Z,8.50
2022-08-26T01:22:32.896Z,7.63
2022-08-26T01:25:03.614Z,6.87
2022-08-26T01:27:32.952Z,6.77
2022-08-26T01:30:02.502Z,6.57
2022-08-26T01:32:31.783Z,6.90
2022-08-26T01:34:59.055Z,6.07
2022-08-26T01:37:32.563Z,5.73
2022-08-26T01:39:59.464Z,7.43
2022-08-26T01:42:27.480Z,6.20
2022-08-26T01:48:38.756Z,5.60
2022-08-26T01:51:09.664Z,6.00
2022-08-26T01:53:37.764Z,5.50
2022-08-26T01:56:10.636Z,5.17
2022-08-26T01:58:45.292Z,4.90
2022-08-26T02:01:12.902Z,6.10
2022-08-26T02:03:55.852Z,6.10
2022-08-26T02:06:23.679Z,6.17
2022-08-26T02:08:55.420Z,7.23
2022-08-26T02:11:23.192Z,7.47
2022-08-26T02:13:55.510Z,7.03
2022-08-26T02:16:26.413Z,7.90
2022-08-26T02:18:55.233Z,8.10
2022-08-26T02:21:22.915Z,8.87
2022-08-26T02:23:52.433Z,8.67
2022-08-26T02:26:27.131Z,8.13
2022-08-26T02:29:03.923Z,6.80
2022-08-26T02:31:31.348Z,7.77
2022-08-26T02:34:16.705Z,6.40
2022-08-26T02:36:43.704Z,7.57
2022-08-26T02:39:10.632Z,8.83
2022-08-26T02:41:44.934Z,8.43
2022-08-26T02:44:13.283Z,8.87
2022-08-26T02:46:41.497Z,10.57
2022-08-26T02:49:14.432Z,11.53
2022-08-26T02:51:41.230Z,11.60
2022-08-26T02:54:10.141Z,11.10
2022-08-26T02:56:37.841Z,10.83
2022-08-26T02:59:04.892Z,16.73
2022-08-26T03:01:34.279Z,8.93
2022-08-26T03:04:04.855Z,11.07
2022-08-26T03:06:32.818Z,10.80
2022-08-26T03:08:59.780Z,10.53
2022-08-26T03:11:32.247Z,11.00
2022-08-26T03:14:01.867Z,11.00
2022-08-26T03:16:36.309Z,10.60
2022-08-26T03:19:06.680Z,10.30
2022-08-26T03:21:35.460Z,12.40
2022-08-26T03:24:03.376Z,11.57
2022-08-26T03:26:30.988Z,11.97
2022-08-26T03:29:16.705Z,11.33
2022-08-26T03:31:43.951Z,13.43
2022-08-26T03:34:14.408Z,9.97
2022-08-26T03:36:42.105Z,15.60
2022-08-26T03:39:10.877Z,13.03
2022-08-26T03:41:38.680Z,11.47
2022-08-26T03:44:08.792Z,11.87
2022-08-26T03:46:36.902Z,18.63
2022-08-26T03:49:06.018Z,15.43
2022-08-26T03:51:34.740Z,11.30
2022-08-26T03:54:06.551Z,14.57
2022-08-26T03:56:36.572Z,12.57
2022-08-26T03:59:04.952Z,17.10
2022-08-26T04:01:35.336Z,13.30
2022-08-26T04:04:03.258Z,14.03
2022-08-26T04:06:35.942Z,14.30
2022-08-26T04:09:07.923Z,23.60
2022-08-26T04:11:37.743Z,13.80
2022-08-26T04:14:08.271Z,13.07
2022-08-26T04:16:35.512Z,16.00
2022-08-26T04:19:02.522Z,29.97
2022-08-26T04:21:29.461Z,24.17
2022-08-26T04:23:56.601Z,14.03
2022-08-26T04:26:26.049Z,19.50
2022-08-26T04:28:54.738Z,20.77
2022-08-26T04:31:22.540Z,15.57
2022-08-26T04:33:50.792Z,15.63
2022-08-26T04:36:19.968Z,13.87
2022-08-26T04:38:47.977Z,16.10
2022-08-26T04:41:16.892Z,13.50
2022-08-26T04:43:45.454Z,20.90
2022-08-26T04:46:13.967Z,26.77
2022-08-26T04:48:41.416Z,10.63
2022-08-26T04:51:09.883Z,12.87
2022-08-26T04:53:37.762Z,16.70
2022-08-26T04:56:05.476Z,13.13
2022-08-26T04:58:32.839Z,18.43
2022-08-26T05:01:00.076Z,11.73
2022-08-26T05:03:27.491Z,14.23
2022-08-26T05:05:58.610Z,15.60
2022-08-26T05:08:26.183Z,14.90
2022-08-26T05:10:56.282Z,12.60
2022-08-26T05:13:26.841Z,15.53
2022-08-26T05:15:54.724Z,14.17
2022-08-26T05:18:27.533Z,17.57
2022-08-26T05:20:55.030Z,18.13
2022-08-26T05:23:23.713Z,23.53
2022-08-26T05:25:57.051Z,25.33
2022-08-26T05:28:26.854Z,16.30
2022-08-26T05:30:55.630Z,18.27
2022-08-26T05:33:23.158Z,13.33
2022-08-26T05:35:50.220Z,11.40
2022-08-26T05:38:20.032Z,22.10
2022-08-26T05:40:52.541Z,14.20
2022-08-26T05:43:21.987Z,13.27
2022-08-26T05:45:50.432Z,13.30
2022-08-26T05:48:22.814Z,16.03
2022-08-26T05:50:53.292Z,22.70
2022-08-26T05:53:22.046Z,22.93
2022-08-26T05:55:53.247Z,14.57
2022-08-26T05:58:21.907Z,19.67
2022-08-26T06:01:20.261Z,18.60
2022-08-26T06:03:54.728Z,19.47
2022-08-26T06:06:29.929Z,18.00
2022-08-26T06:08:59.411Z,13.63
2022-08-26T06:11:27.754Z,12.90
2022-08-26T06:14:01.223Z,12.90
2022-08-26T06:16:31.186Z,15.00
2022-08-26T06:18:58.027Z,15.97
2022-08-26T06:21:33.505Z,19.37
2022-08-26T06:24:27.198Z,19.20
2022-08-26T06:27:00.218Z,17.60
2022-08-26T06:29:27.826Z,12.53
2022-08-26T06:31:56.138Z,13.23
2022-08-26T06:34:23.760Z,16.70
2022-08-26T06:36:58.623Z,12.57
2022-08-26T06:39:25.611Z,17.20
2022-08-26T06:41:53.000Z,14.57
2022-08-26T06:44:20.934Z,13.80
2022-08-26T06:46:50.664Z,13.40
2022-08-26T06:49:18.416Z,14.70
2022-08-26T06:51:55.177Z,13.43
2022-08-26T06:54:22.347Z,12.27
2022-08-26T06:56:50.398Z,14.60
2022-08-26T06:59:17.956Z,16.03
2022-08-26T07:01:45.201Z,19.07
2022-08-26T07:04:15.675Z,16.57
2022-08-26T07:06:52.358Z,16.40
2022-08-26T07:09:24.665Z,15.83
2022-08-26T07:11:52.998Z,16.30
2022-08-26T07:14:21.350Z,16.73
2022-08-26T07:16:49.437Z,16.27
2022-08-26T07:19:17.719Z,15.63
2022-08-26T07:21:56.677Z,16.47
2022-08-26T07:24:23.609Z,16.17
2022-08-26T07:26:59.409Z,16.93
2022-08-26T07:29:26.184Z,15.13
2022-08-26T07:31:53.792Z,15.50
2022-08-26T07:34:24.104Z,14.43
2022-08-26T07:36:51.603Z,15.90
2022-08-26T07:39:19.190Z,15.90
2022-08-26T07:41:47.393Z,16.00
2022-08-26T07:44:15.069Z,16.70
2022-08-26T07:46:44.006Z,15.43
2022-08-26T07:49:12.315Z,14.77
2022-08-26T07:51:40.263Z,16.27
2022-08-26T07:54:07.443Z,15.33
2022-08-26T07:56:35.278Z,14.17
2022-08-26T07:59:13.563Z,15.83
2022-08-26T08:01:44.988Z,15.17
2022-08-26T08:04:17.334Z,16.23
2022-08-26T08:06:45.326Z,16.00
2022-08-26T08:09:13.942Z,15.47
2022-08-26T08:11:43.458Z,15.30
2022-08-26T08:14:12.191Z,18.10
2022-08-26T08:16:46.134Z,16.90
2022-08-26T08:19:14.839Z,16.70
2022-08-26T08:21:43.028Z,16.00
2022-08-26T08:24:11.321Z,14.93
2022-08-26T08:26:38.981Z,16.90
2022-08-26T08:29:07.975Z,15.13
2022-08-26T08:34:23.133Z,18.10
2022-08-26T08:36:50.544Z,20.53
2022-08-26T08:39:20.680Z,17.80
2022-08-26T08:41:48.826Z,17.40
2022-08-26T08:44:19.967Z,17.37
2022-08-26T08:46:56.078Z,18.73
2022-08-26T08:49:25.967Z,18.80
2022-08-26T08:52:06.949Z,18.07
2022-08-26T08:54:33.965Z,18.50
2022-08-26T08:57:10.311Z,16.60
2022-08-26T08:59:47.600Z,17.87
2022-08-26T09:02:20.367Z,19.27
2022-08-26T09:05:02.802Z,17.33
2022-08-26T09:07:43.332Z,16.87
2022-08-26T09:10:27.416Z,16.77
2022-08-26T09:12:54.602Z,17.00
2022-08-26T09:15:44.523Z,14.73
2022-08-26T09:18:20.844Z,14.77
2022-08-26T09:20:53.556Z,16.20
2022-08-26T09:23:20.610Z,14.47
2022-08-26T09:28:28.935Z,14.70
2022-08-26T09:31:23.597Z,12.47
2022-08-26T09:34:17.256Z,9.57
2022-08-26T09:36:52.031Z,9.70
2022-08-26T09:39:27.572Z,8.17
2022-08-26T09:42:25.558Z,8.07
2022-08-26T09:45:03.605Z,8.83
2022-08-26T09:47:33.939Z,7.07
2022-08-26T09:50:28.972Z,6.87
2022-08-26T09:53:17.520Z,6.63
2022-08-26T09:55:51.294Z,5.73
2022-08-26T09:58:38.096Z,6.63
2022-08-26T10:01:14.956Z,7.07
2022-08-26T10:03:44.562Z,7.10
2022-08-26T10:06:16.738Z,7.60
2022-08-26T10:08:47.797Z,8.50
2022-08-26T10:11:47.626Z,8.17
2022-08-26T10:14:22.156Z,8.00
2022-08-26T10:17:06.986Z,8.07
2022-08-26T10:19:57.019Z,8.07
2022-08-26T10:22:42.357Z,8.37
2022-08-26T10:25:16.040Z,8.47
2022-08-26T10:27:54.933Z,8.30
2022-08-26T10:30:27.706Z,8.47
2022-08-26T10:33:18.537Z,7.80
2022-08-26T10:35:52.542Z,8.30
2022-08-26T10:38:27.462Z,6.73
2022-08-26T10:41:03.105Z,7.10
2022-08-26T10:44:02.189Z,7.60
2022-08-26T10:46:51.017Z,7.33
2022-08-26T10:49:18.846Z,6.93
2022-08-26T10:52:15.201Z,7.40
2022-08-26T10:55:01.387Z,6.77
2022-08-26T10:57:57.977Z,5.50
2022-08-26T11:01:10.411Z,5.67
2022-08-26T11:03:49.588Z,6.13
2022-08-26T11:06:19.944Z,5.53
2022-08-26T11:08:49.196Z,5.00
2022-08-26T11:11:41.000Z,4.77
2022-08-26T11:14:29.349Z,3.83
2022-08-26T11:17:01.094Z,4.37
2022-08-26T11:19:59.366Z,4.70
2022-08-26T11:22:32.938Z,4.47
2022-08-26T11:25:06.779Z,4.73
2022-08-26T11:27:36.156Z,3.70
2022-08-26T11:30:10.715Z,4.07
2022-08-26T11:32:38.129Z,5.10
2022-08-26T11:35:11.316Z,4.20
2022-08-26T11:37:41.336Z,4.20
2022-08-26T11:40:13.033Z,4.27
2022-08-26T11:42:42.685Z,4.57
2022-08-26T11:45:17.903Z,4.13
2022-08-26T11:47:46.957Z,4.50
2022-08-26T11:50:23.286Z,4.10
2022-08-26T11:53:04.311Z,3.30
2022-08-26T11:55:36.659Z,2.92
2022-08-26T11:58:05.806Z,3.55
2022-08-26T12:00:45.706Z,3.35
2022-08-26T12:03:23.065Z,2.88
2022-08-26T12:05:52.212Z,3.20
2022-08-26T12:08:25.975Z,3.65
2022-08-26T12:11:13.631Z,3.03
2022-08-26T12:13:42.201Z,2.88
2022-08-26T12:16:09.628Z,3.20
2022-08-26T12:18:39.077Z,2.87
2022-08-26T12:21:16.218Z,3.13
2022-08-26T12:23:47.642Z,2.77
2022-08-26T12:26:35.785Z,2.40
2022-08-26T12:29:20.389Z,2.65
2022-08-26T12:32:13.234Z,2.83
2022-08-26T12:34:45.187Z,2.75
2022-08-26T12:37:14.087Z,2.70
2022-08-26T12:39:44.408Z,2.30
2022-08-26T12:42:16.669Z,2.58
2022-08-26T12:44:54.193Z,2.53
2022-08-26T12:47:32.718Z,2.63
2022-08-26T12:50:26.312Z,2.70
2022-08-26T12:53:04.444Z,2.63
2022-08-26T12:55:40.434Z,2.50
2022-08-26T12:58:16.425Z,2.93
2022-08-26T13:00:46.074Z,2.30
2022-08-26T13:03:34.216Z,2.53
2022-08-26T13:06:15.897Z,3.33
2022-08-26T13:08:54.644Z,2.23
2022-08-26T13:11:26.798Z,2.53
2022-08-26T13:14:11.857Z,2.37
2022-08-26T13:16:49.214Z,2.50
2022-08-26T13:19:19.181Z,2.70
2022-08-26T13:21:48.465Z,2.60
2022-08-26T13:24:41.973Z,2.50
2022-08-26T13:27:11.366Z,2.70
2022-08-26T13:29:38.211Z,3.10
2022-08-26T13:32:06.492Z,2.25
2022-08-26T13:34:33.464Z,2.92
2022-08-26T13:37:00.454Z,2.50
2022-08-26T13:39:27.345Z,3.00
2022-08-26T13:41:54.408Z,3.00
2022-08-26T13:44:21.756Z,3.40
2022-08-26T13:46:49.078Z,2.87
2022-08-26T13:49:15.959Z,2.90
2022-08-26T13:51:42.963Z,2.73
2022-08-26T13:54:09.794Z,3.03
2022-08-26T13:56:37.454Z,3.00
2022-08-26T13:59:05.569Z,2.70
2022-08-26T14:01:35.069Z,3.00
2022-08-26T14:04:03.035Z,2.80
2022-08-26T14:06:30.514Z,3.20
2022-08-26T14:08:57.813Z,3.20
2022-08-26T14:11:25.076Z,3.63
2022-08-26T14:13:52.368Z,3.30
2022-08-26T14:16:26.949Z,2.50
2022-08-26T14:18:54.407Z,3.07
2022-08-26T14:21:21.601Z,3.27
2022-08-26T14:23:48.635Z,3.10
2022-08-26T14:26:28.981Z,3.03
2022-08-26T14:29:00.222Z,3.37
2022-08-26T14:31:29.425Z,3.07
2022-08-26T14:34:04.195Z,3.37
2022-08-26T14:36:39.904Z,3.30
2022-08-26T14:39:13.010Z,3.00
2022-08-26T14:41:53.987Z,3.30
2022-08-26T14:44:32.826Z,3.00
2022-08-26T14:47:01.807Z,3.50
2022-08-26T14:49:31.087Z,3.93
2022-08-26T14:51:58.168Z,3.37
2022-08-26T14:54:25.089Z,3.03
2022-08-26T14:57:05.459Z,3.00
2022-08-26T14:59:50.547Z,3.07
2022-08-26T15:02:32.797Z,2.93
2022-08-26T15:05:01.373Z,2.90
2022-08-26T15:07:28.321Z,3.03
2022-08-26T15:09:55.119Z,3.30
2022-08-26T15:12:21.915Z,3.60
2022-08-26T15:14:48.724Z,3.10
2022-08-26T15:17:15.571Z,3.93
2022-08-26T15:19:42.371Z,3.00
2022-08-26T15:22:09.266Z,2.63
2022-08-26T15:24:36.537Z,2.73
2022-08-26T15:27:03.466Z,2.63
2022-08-26T15:29:30.637Z,3.03
2022-08-26T15:32:01.451Z,2.87
2022-08-26T15:34:28.376Z,3.27
2022-08-26T15:36:55.168Z,3.07
2022-08-26T15:39:21.994Z,3.20
2022-08-26T15:41:48.962Z,3.63
2022-08-26T15:44:18.190Z,3.40
2022-08-26T15:46:45.446Z,3.00
2022-08-26T15:49:17.787Z,3.00
2022-08-26T15:51:47.007Z,3.27
2022-08-26T15:54:16.751Z,2.73
2022-08-26T15:56:44.300Z,3.27
2022-08-26T15:59:11.964Z,2.80
2022-08-26T16:01:39.509Z,2.93
2022-08-26T16:04:06.435Z,2.80
2022-08-26T16:06:35.235Z,3.03
2022-08-26T16:09:02.609Z,3.73
2022-08-26T16:11:29.642Z,2.90
2022-08-26T16:13:56.554Z,3.00
2022-08-26T16:16:23.602Z,3.20
2022-08-26T16:18:50.450Z,3.30
2022-08-26T16:21:23.436Z,2.90
2022-08-26T16:23:51.004Z,2.80
2022-08-26T16:26:20.749Z,3.10
2022-08-26T16:28:48.322Z,2.97
2022-08-26T16:31:16.167Z,2.88
2022-08-26T16:33:43.133Z,2.97
2022-08-26T16:36:11.472Z,2.70
2022-08-26T16:38:39.075Z,2.90
2022-08-26T16:41:07.245Z,2.83
2022-08-26T16:43:34.781Z,3.13
2022-08-26T16:46:01.754Z,3.10
2022-08-26T16:48:28.809Z,3.00
2022-08-26T16:50:55.825Z,3.30
2022-08-26T16:53:23.483Z,3.22
2022-08-26T16:55:50.986Z,3.58
2022-08-26T16:58:18.758Z,3.20
2022-08-26T17:00:45.777Z,2.78
2022-08-26T17:03:13.256Z,3.50
2022-08-26T17:05:40.344Z,2.60
2022-08-26T17:08:07.416Z,2.67
2022-08-26T17:10:34.586Z,3.25
2022-08-26T17:13:01.546Z,3.08
2022-08-26T17:15:28.686Z,2.75
2022-08-26T17:17:56.736Z,3.30
2022-08-26T17:20:24.718Z,2.60
2022-08-26T17:22:53.554Z,3.13
2022-08-26T17:25:24.821Z,2.67
2022-08-26T17:27:52.103Z,2.70
2022-08-26T17:30:20.265Z,3.00
2022-08-26T17:32:47.400Z,2.95
2022-08-26T17:35:16.161Z,3.13
2022-08-26T17:37:43.928Z,3.20
2022-08-26T17:40:15.511Z,2.73
2022-08-26T17:42:42.912Z,2.90
2022-08-26T17:45:11.102Z,2.90
2022-08-26T17:47:38.673Z,2.70
2022-08-26T17:50:09.170Z,2.70
2022-08-26T17:52:37.558Z,2.60
2022-08-26T17:55:06.412Z,3.20
2022-08-26T17:57:33.332Z,3.20
2022-08-26T18:00:11.788Z,2.50
2022-08-26T18:02:39.195Z,3.00
2022-08-26T18:05:08.287Z,3.17
2022-08-26T18:07:43.552Z,3.27
2022-08-26T18:10:13.446Z,2.67
2022-08-26T18:12:41.865Z,2.87
2022-08-26T18:15:10.615Z,2.80
2022-08-26T18:17:39.267Z,2.80
2022-08-26T18:20:11.557Z,2.87
2022-08-26T18:22:38.533Z,2.70
2022-08-26T18:25:07.236Z,2.40
2022-08-26T18:27:36.113Z,2.80
2022-08-26T18:30:11.366Z,2.93
2022-08-26T18:32:40.641Z,3.10
2022-08-26T18:35:08.563Z,2.87
2022-08-26T18:37:35.468Z,2.93
2022-08-26T18:40:02.523Z,2.80
2022-08-26T18:42:30.936Z,2.63
2022-08-26T18:44:57.870Z,2.97
2022-08-26T18:47:24.738Z,3.23
2022-08-26T18:49:51.610Z,3.10
2022-08-26T18:52:18.512Z,3.10
2022-08-26T18:54:46.405Z,3.63
2022-08-26T18:57:13.230Z,3.13
2022-08-26T18:59:40.986Z,2.80
2022-08-26T19:02:08.559Z,2.80
2022-08-26T19:04:38.326Z,3.50
2022-08-26T19:07:06.517Z,3.13
2022-08-26T19:09:34.349Z,3.03
2022-08-26T19:12:04.110Z,2.60
2022-08-26T19:14:32.920Z,4.10
2022-08-26T19:17:00.498Z,3.17
2022-08-26T19:19:27.466Z,3.17
2022-08-26T19:21:54.826Z,3.40
2022-08-26T19:24:21.825Z,2.93
2022-08-26T19:26:57.442Z,3.77
2022-08-26T19:29:31.409Z,4.00
2022-08-26T19:31:58.738Z,3.83
2022-08-26T19:34:25.670Z,3.50
2022-08-26T19:36:54.120Z,3.23
2022-08-26T19:39:21.574Z,3.60
2022-08-26T19:41:48.561Z,3.30
2022-08-26T19:44:36.054Z,3.27
2022-08-26T19:47:03.860Z,4.07
2022-08-26T19:49:31.649Z,3.00
2022-08-26T19:51:59.015Z,3.37
2022-08-26T19:54:27.085Z,3.23
2022-08-26T19:56:54.575Z,4.17
2022-08-26T19:59:21.493Z,3.40
2022-08-26T20:02:00.372Z,4.27
2022-08-26T20:04:30.022Z,3.57
2022-08-26T20:06:58.740Z,3.37
2022-08-26T20:09:31.186Z,3.27
2022-08-26T20:11:58.513Z,3.87
2022-08-26T20:14:26.894Z,3.33
2022-08-26T20:16:54.076Z,3.93
2022-08-26T20:19:39.401Z,3.73
2022-08-26T20:22:07.885Z,3.97
2022-08-26T20:24:35.145Z,3.60
2022-08-26T20:27:07.272Z,3.90
2022-08-26T20:29:35.992Z,3.50
2022-08-26T20:32:03.706Z,3.40
2022-08-26T20:34:30.656Z,4.43
2022-08-26T20:36:57.571Z,3.20
2022-08-26T20:39:24.375Z,4.57
2022-08-26T20:41:51.345Z,4.23
2022-08-26T20:44:18.251Z,4.60
2022-08-26T20:46:45.624Z,3.83
2022-08-26T20:49:13.385Z,3.97
2022-08-26T20:51:44.004Z,4.73
2022-08-26T20:54:13.244Z,3.87
2022-08-26T20:56:40.489Z,4.20
2022-08-26T20:59:08.779Z,4.47
2022-08-26T21:01:41.945Z,4.50
2022-08-26T21:04:13.116Z,4.30
2022-08-26T21:06:42.320Z,4.40
2022-08-26T21:09:17.516Z,4.53
2022-08-26T21:11:45.050Z,4.73
2022-08-26T21:14:15.936Z,4.27
2022-08-26T21:16:45.666Z,5.03
2022-08-26T21:19:14.621Z,5.23
2022-08-26T21:21:42.095Z,5.23
2022-08-26T21:24:09.264Z,5.43
2022-08-26T21:26:36.281Z,4.73
2022-08-26T21:29:06.690Z,4.70
2022-08-26T21:31:33.623Z,5.13
2022-08-26T21:34:00.534Z,5.23
2022-08-26T21:36:27.583Z,5.50
2022-08-26T21:39:01.247Z,5.80
2022-08-26T21:41:28.477Z,5.67
2022-08-26T21:43:59.247Z,5.30
2022-08-26T21:46:29.118Z,5.83
2022-08-26T21:48:59.199Z,5.23
2022-08-26T21:51:29.707Z,5.77
2022-08-26T21:53:58.543Z,5.57
2022-08-26T21:56:29.484Z,6.13
2022-08-26T21:58:56.668Z,5.50
2022-08-26T22:01:25.926Z,6.13
2022-08-26T22:03:53.569Z,6.07
2022-08-26T22:06:25.636Z,6.17
2022-08-26T22:08:53.694Z,6.67
2022-08-26T22:11:20.684Z,7.07
2022-08-26T22:13:48.969Z,6.97
2022-08-26T22:16:16.654Z,6.57
2022-08-26T22:18:45.420Z,6.90
2022-08-26T22:21:19.375Z,6.57
2022-08-26T22:23:47.298Z,7.17
2022-08-26T22:26:25.359Z,7.53
2022-08-26T22:28:58.519Z,7.07
2022-08-26T22:31:29.083Z,5.97
2022-08-26T22:34:11.883Z,6.93
2022-08-26T22:36:43.718Z,6.50
2022-08-26T22:39:15.912Z,6.80
2022-08-26T22:41:43.719Z,6.50
2022-08-26T22:44:12.048Z,6.70
2022-08-26T22:46:40.114Z,6.77
2022-08-26T22:49:09.441Z,7.17
2022-08-26T22:51:36.402Z,6.57
2022-08-26T22:54:03.260Z,6.77
2022-08-26T22:56:30.148Z,7.53
2022-08-26T22:58:56.950Z,6.83
2022-08-26T23:01:23.935Z,7.27
2022-08-26T23:03:50.793Z,7.33
2022-08-26T23:06:17.647Z,7.53
2022-08-26T23:08:46.314Z,6.83
2022-08-26T23:11:14.894Z,7.80
2022-08-26T23:13:41.935Z,7.40
2022-08-26T23:16:10.983Z,7.57
2022-08-26T23:18:38.657Z,6.63
2022-08-26T23:21:06.004Z,6.70
2022-08-26T23:23:33.239Z,6.90
2022-08-26T23:26:04.378Z,7.47
2022-08-26T23:28:32.766Z,6.93
2022-08-26T23:31:00.144Z,7.33
2022-08-26T23:33:47.078Z,7.50
2022-08-26T23:36:17.867Z,7.63
2022-08-26T23:38:45.352Z,7.93
2022-08-26T23:41:21.718Z,8.80
2022-08-26T23:43:49.048Z,9.60
2022-08-26T23:46:16.043Z,8.23
2022-08-26T23:48:42.997Z,9.27
2022-08-26T23:51:29.225Z,10.07
2022-08-26T23:53:56.436Z,10.07
2022-08-26T23:56:23.334Z,9.73
2022-08-26T23:58:50.376Z,10.17
